sensor_id;sensor_type;location;lat;lon;timestamp;P1;durP1;ratioP1;P2;durP2;ratioP2
37069;SDS011;22984;48.862;9.320;2022-08-03T00:00:00;3.60;;;3.03;;
37069;SDS011;22984;48.862;9.320;2022-08-03T00:02:26;6.22;;;3.50;;
37069;SDS011;22984;48.862;9.320;2022-08-03T00:04:52;3.25;;;2.95;;
37069;SDS011;22984;48.862;9.320;2022-08-03T00:07:18;4.07;;;3.08;;
37069;SDS011;22984;48.862;9.320;2022-08-03T00:09:44;7.10;;;3.13;;
37069;SDS011;22984;48.862;9.320;2022-08-03T00:12:10;4.72;;;3.17;;
37069;SDS011;22984;48.862;9.320;2022-08-03T00:14:36;3.45;;;3.10;;
37069;SDS011;22984;48.862;9.320;2022-08-03T00:17:02;4.05;;;2.70;;
37069;SDS011;22984;48.862;9.320;2022-08-03T00:19:28;6.97;;;3.22;;
37069;SDS011;22984;48.862;9.320;2022-08-03T00:21:54;3.35;;;3.05;;
37069;SDS011;22984;48.862;9.320;2022-08-03T00:24:20;7.55;;;3.03;;
37069;SDS011;22984;48.862;9.320;2022-08-03T00:26:46;2.65;;;2.45;;
37069;SDS011;22984;48.862;9.320;2022-08-03T00:29:12;3.90;;;2.90;;
37069;SDS011;22984;48.862;9.320;2022-08-03T00:31:38;4.15;;;2.75;;
37069;SDS011;22984;48.862;9.320;2022-08-03T00:34:04;2.75;;;2.60;;
37069;SDS011;22984;48.862;9.320;2022-08-03T00:36:30;2.88;;;2.30;;
37069;SDS011;22984;48.862;9.320;2022-08-03T00:38:57;3.20;;;2.30;;
37069;SDS011;22984;48.862;9.320;2022-08-03T00:41:23;3.10;;;2.80;;
37069;SDS011;22984;48.862;9.320;2022-08-03T00:43:49;2.70;;;2.30;;
37069;SDS011;22984;48.862;9.320;2022-08-03T00:46:15;2.75;;;2.55;;
37069;SDS011;22984;48.862;9.320;2022-08-03T00:48:41;7.32;;;3.15;;
37069;SDS011;22984;48.862;9.320;2022-08-03T00:51:07;4.35;;;2.85;;
37069;SDS011;22984;48.862;9.320;2022-08-03T00:53:33;3.60;;;2.83;;
37069;SDS011;22984;48.862;9.320;2022-08-03T00:56:00;4.82;;;2.67;;
37069;SDS011;22984;48.862;9.320;2022-08-03T00:58:26;3.60;;;3.13;;
37069;SDS011;22984;48.862;9.320;2022-08-03T01:00:52;4.18;;;3.38;;
37069;SDS011;22984;48.862;9.320;2022-08-03T01:03:18;3.35;;;3.15;;
37069;SDS011;22984;48.862;9.320;2022-08-03T01:09:02;4.75;;;3.15;;
37069;SDS011;22984;48.862;9.320;2022-08-03T01:11:08;5.10;;;3.13;;
37069;SDS011;22984;48.862;9.320;2022-08-03T01:14:19;5.97;;;2.67;;
37069;SDS011;22984;48.862;9.320;2022-08-03T01:17:10;5.47;;;2.47;;
37069;SDS011;22984;48.862;9.320;2022-08-03T01:19:30;3.35;;;3.00;;
37069;SDS011;22984;48.862;9.320;2022-08-03T01:22:16;5.32;;;3.10;;
37069;SDS011;22984;48.862;9.320;2022-08-03T01:27:17;4.10;;;2.90;;
37069;SDS011;22984;48.862;9.320;2022-08-03T01:29:58;3.58;;;3.28;;
37069;SDS011;22984;48.862;9.320;2022-08-03T01:32:27;4.88;;;3.50;;
37069;SDS011;22984;48.862;9.320;2022-08-03T01:34:58;5.47;;;3.20;;
37069;SDS011;22984;48.862;9.320;2022-08-03T01:37:27;5.15;;;3.22;;
37069;SDS011;22984;48.862;9.320;2022-08-03T01:39:56;6.20;;;3.58;;
37069;SDS011;22984;48.862;9.320;2022-08-03T01:42:23;6.20;;;3.25;;
37069;SDS011;22984;48.862;9.320;2022-08-03T01:44:50;4.10;;;2.97;;
37069;SDS011;22984;48.862;9.320;2022-08-03T01:47:18;3.17;;;3.00;;
37069;SDS011;22984;48.862;9.320;2022-08-03T01:49:45;4.07;;;3.03;;
37069;SDS011;22984;48.862;9.320;2022-08-03T01:52:12;4.30;;;3.20;;
37069;SDS011;22984;48.862;9.320;2022-08-03T01:54:42;6.00;;;2.93;;
37069;SDS011;22984;48.862;9.320;2022-08-03T01:57:09;3.40;;;2.95;;
37069;SDS011;22984;48.862;9.320;2022-08-03T01:59:35;5.55;;;3.30;;
37069;SDS011;22984;48.862;9.320;2022-08-03T02:02:03;4.43;;;3.13;;
37069;SDS011;22984;48.862;9.320;2022-08-03T02:04:30;3.30;;;3.10;;
37069;SDS011;22984;48.862;9.320;2022-08-03T02:06:56;3.10;;;2.90;;
37069;SDS011;22984;48.862;9.320;2022-08-03T02:09:23;3.75;;;3.10;;
37069;SDS011;22984;48.862;9.320;2022-08-03T02:11:50;6.18;;;3.17;;
37069;SDS011;22984;48.862;9.320;2022-08-03T02:14:16;3.57;;;3.13;;
37069;SDS011;22984;48.862;9.320;2022-08-03T02:16:44;3.20;;;2.90;;
37069;SDS011;22984;48.862;9.320;2022-08-03T02:19:10;3.20;;;2.90;;
37069;SDS011;22984;48.862;9.320;2022-08-03T02:21:37;3.40;;;3.03;;
37069;SDS011;22984;48.862;9.320;2022-08-03T02:24:03;6.57;;;3.17;;
37069;SDS011;22984;48.862;9.320;2022-08-03T02:26:30;7.07;;;2.95;;
37069;SDS011;22984;48.862;9.320;2022-08-03T02:29:00;5.03;;;3.28;;
37069;SDS011;22984;48.862;9.320;2022-08-03T02:31:28;4.25;;;3.53;;
37069;SDS011;22984;48.862;9.320;2022-08-03T02:33:56;3.33;;;3.05;;
37069;SDS011;22984;48.862;9.320;2022-08-03T02:36:24;3.70;;;3.40;;
37069;SDS011;22984;48.862;9.320;2022-08-03T02:38:52;3.40;;;3.10;;
37069;SDS011;22984;48.862;9.320;2022-08-03T02:41:20;4.32;;;3.88;;
37069;SDS011;22984;48.862;9.320;2022-08-03T02:43:48;4.97;;;3.47;;
37069;SDS011;22984;48.862;9.320;2022-08-03T02:46:16;5.13;;;4.00;;
37069;SDS011;22984;48.862;9.320;2022-08-03T02:48:43;3.63;;;3.33;;
37069;SDS011;22984;48.862;9.320;2022-08-03T02:51:10;3.20;;;3.00;;
37069;SDS011;22984;48.862;9.320;2022-08-03T02:53:37;10.77;;;3.90;;
37069;SDS011;22984;48.862;9.320;2022-08-03T02:56:03;4.27;;;3.87;;
37069;SDS011;22984;48.862;9.320;2022-08-03T02:58:30;4.77;;;3.60;;
37069;SDS011;22984;48.862;9.320;2022-08-03T03:00:57;3.40;;;3.20;;
37069;SDS011;22984;48.862;9.320;2022-08-03T03:03:23;3.60;;;3.40;;
37069;SDS011;22984;48.862;9.320;2022-08-03T03:05:50;4.25;;;3.40;;
37069;SDS011;22984;48.862;9.320;2022-08-03T03:08:17;5.43;;;3.40;;
37069;SDS011;22984;48.862;9.320;2022-08-03T03:10:43;4.80;;;3.20;;
37069;SDS011;22984;48.862;9.320;2022-08-03T03:13:10;2.95;;;2.65;;
37069;SDS011;22984;48.862;9.320;2022-08-03T03:15:38;3.13;;;2.92;;
37069;SDS011;22984;48.862;9.320;2022-08-03T03:18:04;3.67;;;2.95;;
37069;SDS011;22984;48.862;9.320;2022-08-03T03:20:33;3.72;;;3.22;;
37069;SDS011;22984;48.862;9.320;2022-08-03T03:23:00;3.35;;;3.15;;
37069;SDS011;22984;48.862;9.320;2022-08-03T03:25:27;3.33;;;3.00;;
37069;SDS011;22984;48.862;9.320;2022-08-03T03:27:54;6.40;;;2.85;;
37069;SDS011;22984;48.862;9.320;2022-08-03T03:30:20;4.45;;;3.20;;
37069;SDS011;22984;48.862;9.320;2022-08-03T03:32:46;3.33;;;2.77;;
37069;SDS011;22984;48.862;9.320;2022-08-03T03:35:12;4.22;;;3.17;;
37069;SDS011;22984;48.862;9.320;2022-08-03T03:37:39;3.30;;;3.00;;
37069;SDS011;22984;48.862;9.320;2022-08-03T03:40:05;6.25;;;3.17;;
37069;SDS011;22984;48.862;9.320;2022-08-03T03:42:32;3.72;;;3.05;;
37069;SDS011;22984;48.862;9.320;2022-08-03T03:45:02;4.60;;;2.80;;
37069;SDS011;22984;48.862;9.320;2022-08-03T03:47:28;3.40;;;3.10;;
37069;SDS011;22984;48.862;9.320;2022-08-03T03:49:55;3.25;;;3.00;;
37069;SDS011;22984;48.862;9.320;2022-08-03T03:52:22;3.72;;;3.20;;
37069;SDS011;22984;48.862;9.320;2022-08-03T03:54:48;4.00;;;3.30;;
37069;SDS011;22984;48.862;9.320;2022-08-03T03:57:14;5.37;;;3.33;;
37069;SDS011;22984;48.862;9.320;2022-08-03T03:59:40;5.00;;;3.27;;
37069;SDS011;22984;48.862;9.320;2022-08-03T04:02:07;3.30;;;3.00;;
37069;SDS011;22984;48.862;9.320;2022-08-03T04:04:33;5.32;;;2.80;;
37069;SDS011;22984;48.862;9.320;2022-08-03T04:07:18;3.08;;;2.88;;
37069;SDS011;22984;48.862;9.320;2022-08-03T04:10:07;4.15;;;3.08;;
37069;SDS011;22984;48.862;9.320;2022-08-03T04:12:54;3.22;;;3.00;;
37069;SDS011;22984;48.862;9.320;2022-08-03T04:15:21;5.50;;;3.97;;
37069;SDS011;22984;48.862;9.320;2022-08-03T04:17:47;5.03;;;3.83;;
37069;SDS011;22984;48.862;9.320;2022-08-03T04:20:14;4.03;;;3.67;;
37069;SDS011;22984;48.862;9.320;2022-08-03T04:22:41;4.35;;;3.97;;
37069;SDS011;22984;48.862;9.320;2022-08-03T04:25:08;4.03;;;3.83;;
37069;SDS011;22984;48.862;9.320;2022-08-03T04:27:35;6.20;;;4.25;;
37069;SDS011;22984;48.862;9.320;2022-08-03T04:30:03;3.70;;;3.40;;
37069;SDS011;22984;48.862;9.320;2022-08-03T04:32:30;6.00;;;3.72;;
37069;SDS011;22984;48.862;9.320;2022-08-03T04:34:56;4.80;;;4.00;;
37069;SDS011;22984;48.862;9.320;2022-08-03T04:37:34;3.57;;;3.37;;
37069;SDS011;22984;48.862;9.320;2022-08-03T04:40:04;3.72;;;3.38;;
37069;SDS011;22984;48.862;9.320;2022-08-03T04:42:31;3.75;;;3.45;;
37069;SDS011;22984;48.862;9.320;2022-08-03T04:44:57;4.90;;;3.58;;
37069;SDS011;22984;48.862;9.320;2022-08-03T04:47:24;4.10;;;3.80;;
37069;SDS011;22984;48.862;9.320;2022-08-03T04:49:50;5.00;;;3.78;;
37069;SDS011;22984;48.862;9.320;2022-08-03T04:52:17;3.95;;;3.55;;
37069;SDS011;22984;48.862;9.320;2022-08-03T04:54:43;7.43;;;3.92;;
37069;SDS011;22984;48.862;9.320;2022-08-03T04:57:10;4.40;;;3.90;;
37069;SDS011;22984;48.862;9.320;2022-08-03T04:59:36;5.32;;;4.15;;
37069;SDS011;22984;48.862;9.320;2022-08-03T05:02:03;4.77;;;4.47;;
37069;SDS011;22984;48.862;9.320;2022-08-03T05:04:29;4.57;;;3.70;;
37069;SDS011;22984;48.862;9.320;2022-08-03T05:06:55;5.60;;;3.92;;
37069;SDS011;22984;48.862;9.320;2022-08-03T05:09:21;6.72;;;4.03;;
37069;SDS011;22984;48.862;9.320;2022-08-03T05:11:47;4.50;;;3.40;;
37069;SDS011;22984;48.862;9.320;2022-08-03T05:14:13;3.80;;;3.60;;
37069;SDS011;22984;48.862;9.320;2022-08-03T05:16:39;3.97;;;3.53;;
37069;SDS011;22984;48.862;9.320;2022-08-03T05:19:05;6.60;;;3.70;;
37069;SDS011;22984;48.862;9.320;2022-08-03T05:21:31;4.15;;;3.75;;
37069;SDS011;22984;48.862;9.320;2022-08-03T05:23:58;4.38;;;3.35;;
37069;SDS011;22984;48.862;9.320;2022-08-03T05:26:24;4.20;;;3.80;;
37069;SDS011;22984;48.862;9.320;2022-08-03T05:28:50;3.90;;;3.43;;
37069;SDS011;22984;48.862;9.320;2022-08-03T05:31:17;4.00;;;3.60;;
37069;SDS011;22984;48.862;9.320;2022-08-03T05:33:43;5.70;;;3.67;;
37069;SDS011;22984;48.862;9.320;2022-08-03T05:36:09;3.35;;;3.15;;
37069;SDS011;22984;48.862;9.320;2022-08-03T05:38:35;4.07;;;3.15;;
37069;SDS011;22984;48.862;9.320;2022-08-03T05:41:02;3.47;;;3.17;;
37069;SDS011;22984;48.862;9.320;2022-08-03T05:43:28;3.22;;;2.88;;
37069;SDS011;22984;48.862;9.320;2022-08-03T05:45:55;6.38;;;3.42;;
37069;SDS011;22984;48.862;9.320;2022-08-03T05:48:23;3.57;;;3.27;;
37069;SDS011;22984;48.862;9.320;2022-08-03T05:50:49;5.50;;;3.42;;
37069;SDS011;22984;48.862;9.320;2022-08-03T05:53:15;3.60;;;3.25;;
37069;SDS011;22984;48.862;9.320;2022-08-03T05:55:41;4.70;;;3.03;;
37069;SDS011;22984;48.862;9.320;2022-08-03T05:58:07;4.38;;;3.10;;
37069;SDS011;22984;48.862;9.320;2022-08-03T06:00:33;2.88;;;2.67;;
37069;SDS011;22984;48.862;9.320;2022-08-03T06:02:59;3.40;;;3.10;;
37069;SDS011;22984;48.862;9.320;2022-08-03T06:05:26;6.82;;;3.10;;
37069;SDS011;22984;48.862;9.320;2022-08-03T06:07:52;3.88;;;2.55;;
37069;SDS011;22984;48.862;9.320;2022-08-03T06:10:18;3.15;;;2.67;;
37069;SDS011;22984;48.862;9.320;2022-08-03T06:12:44;5.93;;;2.75;;
37069;SDS011;22984;48.862;9.320;2022-08-03T06:15:13;4.30;;;2.83;;
37069;SDS011;22984;48.862;9.320;2022-08-03T06:17:49;7.47;;;3.42;;
37069;SDS011;22984;48.862;9.320;2022-08-03T06:20:15;3.40;;;2.88;;
37069;SDS011;22984;48.862;9.320;2022-08-03T06:22:42;4.50;;;2.90;;
37069;SDS011;22984;48.862;9.320;2022-08-03T06:25:08;2.35;;;2.25;;
37069;SDS011;22984;48.862;9.320;2022-08-03T06:27:34;3.17;;;2.78;;
37069;SDS011;22984;48.862;9.320;2022-08-03T06:30:04;3.97;;;3.20;;
37069;SDS011;22984;48.862;9.320;2022-08-03T06:32:30;3.92;;;2.72;;
37069;SDS011;22984;48.862;9.320;2022-08-03T06:34:57;4.10;;;3.00;;
37069;SDS011;22984;48.862;9.320;2022-08-03T06:37:23;3.80;;;3.00;;
37069;SDS011;22984;48.862;9.320;2022-08-03T06:39:51;2.97;;;2.47;;
37069;SDS011;22984;48.862;9.320;2022-08-03T06:42:17;3.20;;;2.90;;
37069;SDS011;22984;48.862;9.320;2022-08-03T06:44:43;5.90;;;2.90;;
37069;SDS011;22984;48.862;9.320;2022-08-03T06:47:09;2.60;;;2.22;;
37069;SDS011;22984;48.862;9.320;2022-08-03T06:49:35;5.03;;;2.42;;
37069;SDS011;22984;48.862;9.320;2022-08-03T06:52:01;4.88;;;2.30;;
37069;SDS011;22984;48.862;9.320;2022-08-03T06:54:28;3.92;;;2.20;;
37069;SDS011;22984;48.862;9.320;2022-08-03T06:56:54;6.28;;;2.40;;
37069;SDS011;22984;48.862;9.320;2022-08-03T06:59:20;5.25;;;2.05;;
37069;SDS011;22984;48.862;9.320;2022-08-03T07:01:46;4.90;;;1.83;;
37069;SDS011;22984;48.862;9.320;2022-08-03T07:04:12;3.92;;;1.90;;
37069;SDS011;22984;48.862;9.320;2022-08-03T07:06:38;4.15;;;2.08;;
37069;SDS011;22984;48.862;9.320;2022-08-03T07:09:04;1.70;;;1.60;;
37069;SDS011;22984;48.862;9.320;2022-08-03T07:11:30;4.70;;;1.80;;
37069;SDS011;22984;48.862;9.320;2022-08-03T07:13:57;3.63;;;2.20;;
37069;SDS011;22984;48.862;9.320;2022-08-03T07:16:23;1.63;;;1.52;;
37069;SDS011;22984;48.862;9.320;2022-08-03T07:18:49;2.80;;;1.48;;
37069;SDS011;22984;48.862;9.320;2022-08-03T07:21:15;3.17;;;1.60;;
37069;SDS011;22984;48.862;9.320;2022-08-03T07:23:41;1.77;;;1.17;;
37069;SDS011;22984;48.862;9.320;2022-08-03T07:26:07;2.90;;;1.80;;
37069;SDS011;22984;48.862;9.320;2022-08-03T07:28:33;1.40;;;1.30;;
37069;SDS011;22984;48.862;9.320;2022-08-03T07:30:59;2.85;;;1.77;;
37069;SDS011;22984;48.862;9.320;2022-08-03T07:33:25;3.67;;;1.58;;
37069;SDS011;22984;48.862;9.320;2022-08-03T07:35:51;5.22;;;2.55;;
37069;SDS011;22984;48.862;9.320;2022-08-03T07:38:17;4.47;;;1.50;;
37069;SDS011;22984;48.862;9.320;2022-08-03T07:40:43;1.65;;;1.50;;
37069;SDS011;22984;48.862;9.320;2022-08-03T07:43:09;4.35;;;1.48;;
37069;SDS011;22984;48.862;9.320;2022-08-03T07:45:35;1.63;;;1.42;;
37069;SDS011;22984;48.862;9.320;2022-08-03T07:48:01;1.67;;;1.45;;
37069;SDS011;22984;48.862;9.320;2022-08-03T07:50:28;1.70;;;1.30;;
37069;SDS011;22984;48.862;9.320;2022-08-03T07:52:54;1.25;;;1.10;;
37069;SDS011;22984;48.862;9.320;2022-08-03T07:55:22;3.45;;;1.10;;
37069;SDS011;22984;48.862;9.320;2022-08-03T08:00:46;2.85;;;1.40;;
37069;SDS011;22984;48.862;9.320;2022-08-03T08:03:12;1.70;;;1.60;;
37069;SDS011;22984;48.862;9.320;2022-08-03T08:05:38;1.60;;;1.50;;
37069;SDS011;22984;48.862;9.320;2022-08-03T08:08:05;6.05;;;1.90;;
37069;SDS011;22984;48.862;9.320;2022-08-03T08:10:31;3.20;;;1.38;;
37069;SDS011;22984;48.862;9.320;2022-08-03T08:12:58;1.30;;;1.20;;
37069;SDS011;22984;48.862;9.320;2022-08-03T08:15:24;3.30;;;1.58;;
37069;SDS011;22984;48.862;9.320;2022-08-03T08:17:51;3.13;;;1.50;;
37069;SDS011;22984;48.862;9.320;2022-08-03T08:20:19;2.65;;;1.50;;
37069;SDS011;22984;48.862;9.320;2022-08-03T08:22:45;1.27;;;1.13;;
37069;SDS011;22984;48.862;9.320;2022-08-03T08:25:11;2.30;;;1.27;;
37069;SDS011;22984;48.862;9.320;2022-08-03T08:27:44;1.30;;;1.20;;
37069;SDS011;22984;48.862;9.320;2022-08-03T08:30:10;1.40;;;1.30;;
37069;SDS011;22984;48.862;9.320;2022-08-03T08:32:37;2.53;;;1.30;;
37069;SDS011;22984;48.862;9.320;2022-08-03T08:35:04;1.42;;;1.33;;
37069;SDS011;22984;48.862;9.320;2022-08-03T08:37:30;1.40;;;1.10;;
37069;SDS011;22984;48.862;9.320;2022-08-03T08:39:57;1.00;;;0.90;;
37069;SDS011;22984;48.862;9.320;2022-08-03T08:42:23;2.28;;;1.20;;
37069;SDS011;22984;48.862;9.320;2022-08-03T08:44:49;2.90;;;0.90;;
37069;SDS011;22984;48.862;9.320;2022-08-03T08:47:17;4.10;;;1.20;;
37069;SDS011;22984;48.862;9.320;2022-08-03T08:49:43;1.00;;;1.00;;
37069;SDS011;22984;48.862;9.320;2022-08-03T08:52:11;3.30;;;1.05;;
37069;SDS011;22984;48.862;9.320;2022-08-03T08:54:38;1.40;;;1.05;;
37069;SDS011;22984;48.862;9.320;2022-08-03T08:57:06;1.20;;;0.80;;
37069;SDS011;22984;48.862;9.320;2022-08-03T08:59:34;2.45;;;0.90;;
37069;SDS011;22984;48.862;9.320;2022-08-03T09:02:00;1.00;;;0.80;;
37069;SDS011;22984;48.862;9.320;2022-08-03T09:04:27;3.50;;;1.20;;
37069;SDS011;22984;48.862;9.320;2022-08-03T09:06:53;2.40;;;1.10;;
37069;SDS011;22984;48.862;9.320;2022-08-03T09:09:19;0.80;;;0.80;;
37069;SDS011;22984;48.862;9.320;2022-08-03T09:11:47;1.95;;;1.10;;
37069;SDS011;22984;48.862;9.320;2022-08-03T09:14:13;1.10;;;1.00;;
37069;SDS011;22984;48.862;9.320;2022-08-03T09:16:58;1.75;;;1.13;;
37069;SDS011;22984;48.862;9.320;2022-08-03T09:19:28;0.80;;;0.80;;
37069;SDS011;22984;48.862;9.320;2022-08-03T09:22:07;0.95;;;0.95;;
37069;SDS011;22984;48.862;9.320;2022-08-03T09:24:35;1.17;;;0.90;;
37069;SDS011;22984;48.862;9.320;2022-08-03T09:27:01;3.47;;;0.90;;
37069;SDS011;22984;48.862;9.320;2022-08-03T09:29:31;1.65;;;0.70;;
37069;SDS011;22984;48.862;9.320;2022-08-03T09:32:01;2.53;;;1.10;;
37069;SDS011;22984;48.862;9.320;2022-08-03T09:34:27;2.75;;;0.98;;
37069;SDS011;22984;48.862;9.320;2022-08-03T09:36:53;3.85;;;1.10;;
37069;SDS011;22984;48.862;9.320;2022-08-03T09:39:22;2.40;;;1.00;;
37069;SDS011;22984;48.862;9.320;2022-08-03T09:44:33;1.35;;;0.90;;
37069;SDS011;22984;48.862;9.320;2022-08-03T09:47:00;2.63;;;1.40;;
37069;SDS011;22984;48.862;9.320;2022-08-03T09:49:26;3.30;;;1.20;;
37069;SDS011;22984;48.862;9.320;2022-08-03T09:51:52;1.50;;;1.10;;
37069;SDS011;22984;48.862;9.320;2022-08-03T09:54:25;2.30;;;0.77;;
37069;SDS011;22984;48.862;9.320;2022-08-03T09:56:51;3.77;;;0.90;;
37069;SDS011;22984;48.862;9.320;2022-08-03T09:59:28;1.90;;;0.83;;
37069;SDS011;22984;48.862;9.320;2022-08-03T10:01:54;2.60;;;0.70;;
37069;SDS011;22984;48.862;9.320;2022-08-03T10:04:21;2.30;;;1.00;;
37069;SDS011;22984;48.862;9.320;2022-08-03T10:09:28;8.10;;;1.45;;
37069;SDS011;22984;48.862;9.320;2022-08-03T10:11:54;1.17;;;0.95;;
37069;SDS011;22984;48.862;9.320;2022-08-03T10:14:21;3.50;;;1.13;;
37069;SDS011;22984;48.862;9.320;2022-08-03T10:16:47;2.83;;;0.90;;
37069;SDS011;22984;48.862;9.320;2022-08-03T10:19:14;3.20;;;0.90;;
37069;SDS011;22984;48.862;9.320;2022-08-03T10:21:41;2.63;;;1.10;;
37069;SDS011;22984;48.862;9.320;2022-08-03T10:24:08;0.83;;;0.83;;
37069;SDS011;22984;48.862;9.320;2022-08-03T10:26:37;2.47;;;0.80;;
37069;SDS011;22984;48.862;9.320;2022-08-03T10:29:07;2.15;;;0.93;;
37069;SDS011;22984;48.862;9.320;2022-08-03T10:31:39;0.70;;;0.70;;
37069;SDS011;22984;48.862;9.320;2022-08-03T10:34:08;1.98;;;0.90;;
37069;SDS011;22984;48.862;9.320;2022-08-03T10:36:37;1.10;;;0.97;;
37069;SDS011;22984;48.862;9.320;2022-08-03T10:39:05;1.38;;;0.90;;
37069;SDS011;22984;48.862;9.320;2022-08-03T10:41:31;1.50;;;0.65;;
37069;SDS011;22984;48.862;9.320;2022-08-03T10:44:14;1.30;;;0.80;;
37069;SDS011;22984;48.862;9.320;2022-08-03T10:46:42;2.65;;;0.77;;
37069;SDS011;22984;48.862;9.320;2022-08-03T10:49:16;2.38;;;0.80;;
37069;SDS011;22984;48.862;9.320;2022-08-03T10:51:46;1.80;;;0.63;;
37069;SDS011;22984;48.862;9.320;2022-08-03T10:56:56;3.70;;;0.80;;
37069;SDS011;22984;48.862;9.320;2022-08-03T11:02:10;2.50;;;0.70;;
37069;SDS011;22984;48.862;9.320;2022-08-03T11:04:38;1.15;;;0.82;;
37069;SDS011;22984;48.862;9.320;2022-08-03T11:09:49;1.00;;;0.80;;
37069;SDS011;22984;48.862;9.320;2022-08-03T11:12:36;0.90;;;0.90;;
37069;SDS011;22984;48.862;9.320;2022-08-03T11:15:04;2.70;;;0.75;;
37069;SDS011;22984;48.862;9.320;2022-08-03T11:17:31;2.10;;;1.00;;
37069;SDS011;22984;48.862;9.320;2022-08-03T11:19:57;1.17;;;0.80;;
37069;SDS011;22984;48.862;9.320;2022-08-03T11:22:24;1.50;;;0.80;;
37069;SDS011;22984;48.862;9.320;2022-08-03T11:27:28;1.30;;;0.70;;
37069;SDS011;22984;48.862;9.320;2022-08-03T11:35:56;1.83;;;0.80;;
37069;SDS011;22984;48.862;9.320;2022-08-03T11:45:57;1.17;;;0.80;;
37069;SDS011;22984;48.862;9.320;2022-08-03T11:48:25;0.90;;;0.90;;
37069;SDS011;22984;48.862;9.320;2022-08-03T11:50:52;1.77;;;0.80;;
37069;SDS011;22984;48.862;9.320;2022-08-03T11:53:18;0.88;;;0.88;;
37069;SDS011;22984;48.862;9.320;2022-08-03T11:55:45;1.50;;;0.70;;
37069;SDS011;22984;48.862;9.320;2022-08-03T11:58:15;2.28;;;0.93;;
37069;SDS011;22984;48.862;9.320;2022-08-03T12:00:41;1.10;;;0.80;;
37069;SDS011;22984;48.862;9.320;2022-08-03T12:03:08;1.38;;;0.93;;
37069;SDS011;22984;48.862;9.320;2022-08-03T12:05:46;3.80;;;0.77;;
37069;SDS011;22984;48.862;9.320;2022-08-03T12:08:13;1.20;;;0.85;;
37069;SDS011;22984;48.862;9.320;2022-08-03T12:10:39;2.20;;;0.90;;
37069;SDS011;22984;48.862;9.320;2022-08-03T12:13:06;2.47;;;0.77;;
37069;SDS011;22984;48.862;9.320;2022-08-03T12:15:33;1.50;;;0.68;;
37069;SDS011;22984;48.862;9.320;2022-08-03T12:17:59;4.30;;;1.10;;
37069;SDS011;22984;48.862;9.320;2022-08-03T12:20:26;3.70;;;0.82;;
37069;SDS011;22984;48.862;9.320;2022-08-03T12:22:53;1.95;;;1.10;;
37069;SDS011;22984;48.862;9.320;2022-08-03T12:25:23;1.35;;;1.25;;
37069;SDS011;22984;48.862;9.320;2022-08-03T12:27:50;1.77;;;0.70;;
37069;SDS011;22984;48.862;9.320;2022-08-03T12:30:17;1.15;;;0.82;;
37069;SDS011;22984;48.862;9.320;2022-08-03T12:32:44;0.73;;;0.73;;
37069;SDS011;22984;48.862;9.320;2022-08-03T12:35:20;0.80;;;0.80;;
37069;SDS011;22984;48.862;9.320;2022-08-03T12:37:47;1.63;;;1.00;;
37069;SDS011;22984;48.862;9.320;2022-08-03T12:40:13;0.98;;;0.88;;
37069;SDS011;22984;48.862;9.320;2022-08-03T12:42:40;2.03;;;0.90;;
37069;SDS011;22984;48.862;9.320;2022-08-03T12:47:57;3.20;;;1.33;;
37069;SDS011;22984;48.862;9.320;2022-08-03T12:50:28;4.10;;;0.73;;
37069;SDS011;22984;48.862;9.320;2022-08-03T12:52:55;2.38;;;0.75;;
37069;SDS011;22984;48.862;9.320;2022-08-03T12:55:21;4.88;;;0.90;;
37069;SDS011;22984;48.862;9.320;2022-08-03T12:57:48;1.10;;;0.70;;
37069;SDS011;22984;48.862;9.320;2022-08-03T13:00:15;2.30;;;0.88;;
37069;SDS011;22984;48.862;9.320;2022-08-03T13:02:41;0.93;;;0.88;;
37069;SDS011;22984;48.862;9.320;2022-08-03T13:05:12;3.10;;;0.80;;
37069;SDS011;22984;48.862;9.320;2022-08-03T13:07:42;2.25;;;0.88;;
37069;SDS011;22984;48.862;9.320;2022-08-03T13:10:08;3.60;;;1.00;;
37069;SDS011;22984;48.862;9.320;2022-08-03T13:12:47;1.58;;;0.88;;
37069;SDS011;22984;48.862;9.320;2022-08-03T13:15:14;0.98;;;0.85;;
37069;SDS011;22984;48.862;9.320;2022-08-03T13:17:40;0.80;;;0.75;;
37069;SDS011;22984;48.862;9.320;2022-08-03T13:20:06;1.20;;;0.70;;
37069;SDS011;22984;48.862;9.320;2022-08-03T13:22:33;0.90;;;0.57;;
37069;SDS011;22984;48.862;9.320;2022-08-03T13:24:59;1.73;;;1.00;;
37069;SDS011;22984;48.862;9.320;2022-08-03T13:27:27;6.65;;;1.10;;
37069;SDS011;22984;48.862;9.320;2022-08-03T13:29:54;1.70;;;0.98;;
37069;SDS011;22984;48.862;9.320;2022-08-03T13:32:21;1.95;;;1.10;;
37069;SDS011;22984;48.862;9.320;2022-08-03T13:34:47;1.90;;;0.80;;
37069;SDS011;22984;48.862;9.320;2022-08-03T13:37:13;2.35;;;1.10;;
37069;SDS011;22984;48.862;9.320;2022-08-03T13:39:40;2.75;;;0.75;;
37069;SDS011;22984;48.862;9.320;2022-08-03T13:42:06;2.78;;;0.88;;
37069;SDS011;22984;48.862;9.320;2022-08-03T13:44:32;1.60;;;0.90;;
37069;SDS011;22984;48.862;9.320;2022-08-03T13:47:00;1.63;;;0.93;;
37069;SDS011;22984;48.862;9.320;2022-08-03T13:49:26;1.10;;;0.90;;
37069;SDS011;22984;48.862;9.320;2022-08-03T13:51:53;0.73;;;0.70;;
37069;SDS011;22984;48.862;9.320;2022-08-03T13:54:19;0.70;;;0.70;;
37069;SDS011;22984;48.862;9.320;2022-08-03T13:56:46;1.30;;;0.80;;
37069;SDS011;22984;48.862;9.320;2022-08-03T13:59:17;2.95;;;0.60;;
37069;SDS011;22984;48.862;9.320;2022-08-03T14:01:44;0.95;;;0.60;;
37069;SDS011;22984;48.862;9.320;2022-08-03T14:04:10;1.23;;;0.60;;
37069;SDS011;22984;48.862;9.320;2022-08-03T14:06:36;1.27;;;0.70;;
37069;SDS011;22984;48.862;9.320;2022-08-03T14:09:02;5.18;;;0.90;;
37069;SDS011;22984;48.862;9.320;2022-08-03T14:11:28;1.10;;;0.70;;
37069;SDS011;22984;48.862;9.320;2022-08-03T14:13:55;0.70;;;0.70;;
37069;SDS011;22984;48.862;9.320;2022-08-03T14:16:21;1.40;;;1.30;;
37069;SDS011;22984;48.862;9.320;2022-08-03T14:18:47;1.20;;;0.70;;
37069;SDS011;22984;48.862;9.320;2022-08-03T14:21:13;4.10;;;0.80;;
37069;SDS011;22984;48.862;9.320;2022-08-03T14:23:39;0.57;;;0.52;;
37069;SDS011;22984;48.862;9.320;2022-08-03T14:26:05;2.60;;;0.73;;
37069;SDS011;22984;48.862;9.320;2022-08-03T14:28:32;0.60;;;0.60;;
37069;SDS011;22984;48.862;9.320;2022-08-03T14:30:58;2.25;;;0.60;;
37069;SDS011;22984;48.862;9.320;2022-08-03T14:33:24;0.65;;;0.65;;
37069;SDS011;22984;48.862;9.320;2022-08-03T14:35:52;1.20;;;0.70;;
37069;SDS011;22984;48.862;9.320;2022-08-03T14:38:20;2.40;;;0.50;;
37069;SDS011;22984;48.862;9.320;2022-08-03T14:40:47;0.60;;;0.60;;
37069;SDS011;22984;48.862;9.320;2022-08-03T14:43:14;2.33;;;0.57;;
37069;SDS011;22984;48.862;9.320;2022-08-03T14:45:42;1.52;;;0.60;;
37069;SDS011;22984;48.862;9.320;2022-08-03T14:48:08;2.35;;;0.77;;
37069;SDS011;22984;48.862;9.320;2022-08-03T14:50:34;1.00;;;0.50;;
37069;SDS011;22984;48.862;9.320;2022-08-03T14:53:00;2.40;;;0.93;;
37069;SDS011;22984;48.862;9.320;2022-08-03T14:55:26;1.48;;;0.60;;
37069;SDS011;22984;48.862;9.320;2022-08-03T14:57:52;2.20;;;0.60;;
37069;SDS011;22984;48.862;9.320;2022-08-03T15:00:18;2.10;;;0.77;;
37069;SDS011;22984;48.862;9.320;2022-08-03T15:02:44;1.50;;;0.65;;
37069;SDS011;22984;48.862;9.320;2022-08-03T15:05:10;0.85;;;0.65;;
37069;SDS011;22984;48.862;9.320;2022-08-03T15:07:39;2.20;;;0.98;;
37069;SDS011;22984;48.862;9.320;2022-08-03T15:10:05;3.20;;;0.68;;
37069;SDS011;22984;48.862;9.320;2022-08-03T15:12:31;1.40;;;0.60;;
37069;SDS011;22984;48.862;9.320;2022-08-03T15:14:57;2.78;;;0.70;;
37069;SDS011;22984;48.862;9.320;2022-08-03T15:17:23;3.08;;;0.70;;
37069;SDS011;22984;48.862;9.320;2022-08-03T15:19:49;1.37;;;0.70;;
37069;SDS011;22984;48.862;9.320;2022-08-03T15:22:15;2.30;;;0.65;;
37069;SDS011;22984;48.862;9.320;2022-08-03T15:24:43;0.85;;;0.70;;
37069;SDS011;22984;48.862;9.320;2022-08-03T15:27:09;0.90;;;0.60;;
37069;SDS011;22984;48.862;9.320;2022-08-03T15:29:35;0.95;;;0.73;;